sensor_id;sensor_type;location;lat;lon;timestamp;P1;durP1;ratioP1;P2;durP2;ratioP2
23702;SDS011;12030;50.376;8.762;2022-09-03T00:00:21;5.85;;;1.02;;
23702;SDS011;12030;50.376;8.762;2022-09-03T00:02:59;3.55;;;1.02;;
23702;SDS011;12030;50.376;8.762;2022-09-03T00:10:36;6.43;;;1.07;;
23702;SDS011;12030;50.376;8.762;2022-09-03T00:13:19;5.53;;;1.30;;
23702;SDS011;12030;50.376;8.762;2022-09-03T00:16:27;7.27;;;1.27;;
23702;SDS011;12030;50.376;8.762;2022-09-03T00:18:58;5.80;;;1.40;;
23702;SDS011;12030;50.376;8.762;2022-09-03T00:24:02;6.63;;;1.80;;
23702;SDS011;12030;50.376;8.762;2022-09-03T00:26:32;2.88;;;1.10;;
23702;SDS011;12030;50.376;8.762;2022-09-03T00:29:06;3.38;;;1.40;;
23702;SDS011;12030;50.376;8.762;2022-09-03T00:31:39;3.30;;;1.33;;
23702;SDS011;12030;50.376;8.762;2022-09-03T00:36:50;2.55;;;1.40;;
23702;SDS011;12030;50.376;8.762;2022-09-03T00:39:18;2.83;;;1.50;;
23702;SDS011;12030;50.376;8.762;2022-09-03T00:52:43;10.40;;;1.52;;
23702;SDS011;12030;50.376;8.762;2022-09-03T01:00:45;2.40;;;1.00;;
23702;SDS011;12030;50.376;8.762;2022-09-03T01:03:16;1.90;;;1.00;;
23702;SDS011;12030;50.376;8.762;2022-09-03T01:14:29;2.20;;;0.90;;
23702;SDS011;12030;50.376;8.762;2022-09-03T01:16:50;3.30;;;1.50;;
23702;SDS011;12030;50.376;8.762;2022-09-03T01:27:45;1.45;;;1.00;;
23702;SDS011;12030;50.376;8.762;2022-09-03T01:30:34;2.72;;;0.95;;
23702;SDS011;12030;50.376;8.762;2022-09-03T01:33:07;2.78;;;1.30;;
23702;SDS011;12030;50.376;8.762;2022-09-03T01:35:59;2.70;;;1.05;;
23702;SDS011;12030;50.376;8.762;2022-09-03T01:38:38;3.28;;;0.98;;
23702;SDS011;12030;50.376;8.762;2022-09-03T01:41:31;2.30;;;0.90;;
23702;SDS011;12030;50.376;8.762;2022-09-03T01:44:31;1.88;;;1.23;;
23702;SDS011;12030;50.376;8.762;2022-09-03T01:49:44;3.00;;;1.00;;
23702;SDS011;12030;50.376;8.762;2022-09-03T01:52:34;1.90;;;1.00;;
23702;SDS011;12030;50.376;8.762;2022-09-03T02:00:45;3.53;;;0.98;;
23702;SDS011;12030;50.376;8.762;2022-09-03T02:03:21;2.03;;;0.90;;
23702;SDS011;12030;50.376;8.762;2022-09-03T02:05:48;3.00;;;1.07;;
23702;SDS011;12030;50.376;8.762;2022-09-03T02:08:16;3.08;;;1.20;;
23702;SDS011;12030;50.376;8.762;2022-09-03T02:10:50;2.10;;;1.00;;
23702;SDS011;12030;50.376;8.762;2022-09-03T02:13:20;6.13;;;1.10;;
23702;SDS011;12030;50.376;8.762;2022-09-03T02:15:52;1.83;;;0.90;;
23702;SDS011;12030;50.376;8.762;2022-09-03T02:18:22;1.52;;;1.05;;
23702;SDS011;12030;50.376;8.762;2022-09-03T02:20:57;1.98;;;0.90;;
23702;SDS011;12030;50.376;8.762;2022-09-03T02:23:24;1.33;;;0.80;;
23702;SDS011;12030;50.376;8.762;2022-09-03T02:25:51;1.20;;;0.90;;
23702;SDS011;12030;50.376;8.762;2022-09-03T02:28:21;2.22;;;1.00;;
23702;SDS011;12030;50.376;8.762;2022-09-03T02:30:47;2.47;;;1.10;;
23702;SDS011;12030;50.376;8.762;2022-09-03T02:33:13;1.40;;;0.90;;
23702;SDS011;12030;50.376;8.762;2022-09-03T02:35:39;1.67;;;0.90;;
23702;SDS011;12030;50.376;8.762;2022-09-03T02:38:13;2.28;;;1.00;;
23702;SDS011;12030;50.376;8.762;2022-09-03T02:40:43;2.08;;;0.90;;
23702;SDS011;12030;50.376;8.762;2022-09-03T02:43:13;2.53;;;1.00;;
23702;SDS011;12030;50.376;8.762;2022-09-03T02:45:52;2.00;;;1.17;;
23702;SDS011;12030;50.376;8.762;2022-09-03T02:48:22;2.45;;;1.00;;
23702;SDS011;12030;50.376;8.762;2022-09-03T02:50:48;1.63;;;1.10;;
23702;SDS011;12030;50.376;8.762;2022-09-03T02:53:14;2.63;;;0.97;;
23702;SDS011;12030;50.376;8.762;2022-09-03T02:55:40;3.75;;;1.00;;
23702;SDS011;12030;50.376;8.762;2022-09-03T02:58:05;4.67;;;1.40;;
23702;SDS011;12030;50.376;8.762;2022-09-03T03:00:32;1.02;;;0.93;;
23702;SDS011;12030;50.376;8.762;2022-09-03T03:02:59;2.53;;;1.10;;
23702;SDS011;12030;50.376;8.762;2022-09-03T03:05:41;1.20;;;0.85;;
23702;SDS011;12030;50.376;8.762;2022-09-03T03:08:11;2.08;;;1.20;;
23702;SDS011;12030;50.376;8.762;2022-09-03T03:10:39;2.42;;;0.98;;
23702;SDS011;12030;50.376;8.762;2022-09-03T03:13:05;6.72;;;1.25;;
23702;SDS011;12030;50.376;8.762;2022-09-03T03:15:30;1.20;;;1.00;;
23702;SDS011;12030;50.376;8.762;2022-09-03T03:17:56;4.43;;;1.08;;
23702;SDS011;12030;50.376;8.762;2022-09-03T03:20:22;4.40;;;1.00;;
23702;SDS011;12030;50.376;8.762;2022-09-03T03:22:47;3.05;;;1.00;;
23702;SDS011;12030;50.376;8.762;2022-09-03T03:25:13;4.50;;;1.00;;
23702;SDS011;12030;50.376;8.762;2022-09-03T03:27:39;4.90;;;1.10;;
23702;SDS011;12030;50.376;8.762;2022-09-03T03:30:05;5.22;;;1.40;;
23702;SDS011;12030;50.376;8.762;2022-09-03T03:32:34;6.20;;;1.35;;
23702;SDS011;12030;50.376;8.762;2022-09-03T03:35:00;20.67;;;2.25;;
23702;SDS011;12030;50.376;8.762;2022-09-03T03:37:26;2.53;;;1.03;;
23702;SDS011;12030;50.376;8.762;2022-09-03T03:39:51;2.77;;;1.10;;
23702;SDS011;12030;50.376;8.762;2022-09-03T03:42:17;1.67;;;0.93;;
23702;SDS011;12030;50.376;8.762;2022-09-03T03:44:42;3.80;;;1.20;;
23702;SDS011;12030;50.376;8.762;2022-09-03T03:47:08;3.67;;;1.10;;
23702;SDS011;12030;50.376;8.762;2022-09-03T03:49:34;6.03;;;1.30;;
23702;SDS011;12030;50.376;8.762;2022-09-03T03:51:59;6.18;;;1.55;;
23702;SDS011;12030;50.376;8.762;2022-09-03T03:54:27;6.32;;;1.40;;
23702;SDS011;12030;50.376;8.762;2022-09-03T03:56:52;4.30;;;1.30;;
23702;SDS011;12030;50.376;8.762;2022-09-03T03:59:18;6.07;;;1.37;;
23702;SDS011;12030;50.376;8.762;2022-09-03T04:01:43;5.30;;;1.30;;
23702;SDS011;12030;50.376;8.762;2022-09-03T04:04:09;3.72;;;1.25;;
23702;SDS011;12030;50.376;8.762;2022-09-03T04:06:34;2.20;;;1.00;;
23702;SDS011;12030;50.376;8.762;2022-09-03T04:09:00;1.33;;;1.00;;
23702;SDS011;12030;50.376;8.762;2022-09-03T04:11:25;1.90;;;1.10;;
23702;SDS011;12030;50.376;8.762;2022-09-03T04:13:51;1.63;;;1.10;;
23702;SDS011;12030;50.376;8.762;2022-09-03T04:16:18;2.17;;;0.88;;
23702;SDS011;12030;50.376;8.762;2022-09-03T04:18:45;4.28;;;1.15;;
23702;SDS011;12030;50.376;8.762;2022-09-03T04:21:12;1.98;;;0.90;;
23702;SDS011;12030;50.376;8.762;2022-09-03T04:23:43;1.17;;;0.98;;
23702;SDS011;12030;50.376;8.762;2022-09-03T04:26:12;2.50;;;1.10;;
23702;SDS011;12030;50.376;8.762;2022-09-03T04:28:40;3.95;;;1.13;;
23702;SDS011;12030;50.376;8.762;2022-09-03T04:31:07;3.80;;;1.17;;
23702;SDS011;12030;50.376;8.762;2022-09-03T04:33:34;1.17;;;1.00;;
23702;SDS011;12030;50.376;8.762;2022-09-03T04:36:11;1.00;;;0.80;;
23702;SDS011;12030;50.376;8.762;2022-09-03T04:38:42;2.58;;;1.10;;
23702;SDS011;12030;50.376;8.762;2022-09-03T04:41:10;2.60;;;1.13;;
23702;SDS011;12030;50.376;8.762;2022-09-03T04:43:37;2.38;;;0.93;;
23702;SDS011;12030;50.376;8.762;2022-09-03T04:46:05;1.83;;;1.00;;
23702;SDS011;12030;50.376;8.762;2022-09-03T04:48:31;3.08;;;1.00;;
23702;SDS011;12030;50.376;8.762;2022-09-03T04:51:05;1.77;;;0.93;;
23702;SDS011;12030;50.376;8.762;2022-09-03T04:53:33;2.13;;;0.98;;
23702;SDS011;12030;50.376;8.762;2022-09-03T04:56:00;2.50;;;1.00;;
23702;SDS011;12030;50.376;8.762;2022-09-03T04:58:25;1.85;;;0.85;;
23702;SDS011;12030;50.376;8.762;2022-09-03T05:00:51;3.00;;;1.20;;
23702;SDS011;12030;50.376;8.762;2022-09-03T05:03:17;1.73;;;1.00;;
23702;SDS011;12030;50.376;8.762;2022-09-03T05:05:50;1.90;;;0.82;;
23702;SDS011;12030;50.376;8.762;2022-09-03T05:08:16;1.65;;;0.90;;
23702;SDS011;12030;50.376;8.762;2022-09-03T05:10:42;2.05;;;1.00;;
23702;SDS011;12030;50.376;8.762;2022-09-03T05:13:08;1.80;;;1.00;;
23702;SDS011;12030;50.376;8.762;2022-09-03T05:15:33;2.00;;;1.00;;
23702;SDS011;12030;50.376;8.762;2022-09-03T05:17:59;2.50;;;0.95;;
23702;SDS011;12030;50.376;8.762;2022-09-03T05:20:27;1.70;;;1.20;;
23702;SDS011;12030;50.376;8.762;2022-09-03T05:22:55;1.90;;;0.90;;
23702;SDS011;12030;50.376;8.762;2022-09-03T05:25:21;1.70;;;1.00;;
23702;SDS011;12030;50.376;8.762;2022-09-03T05:27:48;1.90;;;1.00;;
23702;SDS011;12030;50.376;8.762;2022-09-03T05:30:13;2.70;;;0.98;;
23702;SDS011;12030;50.376;8.762;2022-09-03T05:32:40;4.43;;;1.05;;
23702;SDS011;12030;50.376;8.762;2022-09-03T05:35:06;2.88;;;1.00;;
23702;SDS011;12030;50.376;8.762;2022-09-03T05:37:33;2.50;;;1.20;;
23702;SDS011;12030;50.376;8.762;2022-09-03T05:39:58;2.10;;;1.00;;
23702;SDS011;12030;50.376;8.762;2022-09-03T05:42:24;2.70;;;1.20;;
23702;SDS011;12030;50.376;8.762;2022-09-03T05:44:52;1.77;;;0.90;;
23702;SDS011;12030;50.376;8.762;2022-09-03T05:47:18;3.13;;;1.10;;
23702;SDS011;12030;50.376;8.762;2022-09-03T05:49:44;2.77;;;1.00;;
23702;SDS011;12030;50.376;8.762;2022-09-03T05:52:09;2.13;;;0.90;;
23702;SDS011;12030;50.376;8.762;2022-09-03T05:54:35;2.17;;;0.97;;
23702;SDS011;12030;50.376;8.762;2022-09-03T05:57:00;1.73;;;0.80;;
23702;SDS011;12030;50.376;8.762;2022-09-03T05:59:26;1.38;;;0.98;;
23702;SDS011;12030;50.376;8.762;2022-09-03T06:01:52;2.40;;;1.02;;
23702;SDS011;12030;50.376;8.762;2022-09-03T06:04:18;1.83;;;1.00;;
23702;SDS011;12030;50.376;8.762;2022-09-03T06:06:44;1.73;;;0.90;;
23702;SDS011;12030;50.376;8.762;2022-09-03T06:09:12;2.95;;;1.27;;
23702;SDS011;12030;50.376;8.762;2022-09-03T06:11:43;1.77;;;1.00;;
23702;SDS011;12030;50.376;8.762;2022-09-03T06:14:10;2.30;;;1.15;;
23702;SDS011;12030;50.376;8.762;2022-09-03T06:16:38;1.98;;;0.80;;
23702;SDS011;12030;50.376;8.762;2022-09-03T06:19:05;2.35;;;1.05;;
23702;SDS011;12030;50.376;8.762;2022-09-03T06:21:33;2.07;;;1.00;;
23702;SDS011;12030;50.376;8.762;2022-09-03T06:24:04;1.48;;;0.75;;
23702;SDS011;12030;50.376;8.762;2022-09-03T06:26:30;2.43;;;1.00;;
23702;SDS011;12030;50.376;8.762;2022-09-03T06:28:55;2.20;;;1.17;;
23702;SDS011;12030;50.376;8.762;2022-09-03T06:31:21;2.87;;;1.00;;
23702;SDS011;12030;50.376;8.762;2022-09-03T06:33:47;2.42;;;0.90;;
23702;SDS011;12030;50.376;8.762;2022-09-03T06:36:14;3.23;;;1.00;;
23702;SDS011;12030;50.376;8.762;2022-09-03T06:38:41;2.75;;;1.20;;
23702;SDS011;12030;50.376;8.762;2022-09-03T06:41:09;1.42;;;0.90;;
23702;SDS011;12030;50.376;8.762;2022-09-03T06:43:40;3.23;;;1.30;;
23702;SDS011;12030;50.376;8.762;2022-09-03T06:46:08;2.03;;;0.93;;
23702;SDS011;12030;50.376;8.762;2022-09-03T06:48:35;2.22;;;0.88;;
23702;SDS011;12030;50.376;8.762;2022-09-03T06:53:33;4.45;;;0.98;;
23702;SDS011;12030;50.376;8.762;2022-09-03T06:56:00;2.10;;;1.00;;
23702;SDS011;12030;50.376;8.762;2022-09-03T06:58:29;2.58;;;0.90;;
23702;SDS011;12030;50.376;8.762;2022-09-03T07:03:34;1.15;;;0.82;;
23702;SDS011;12030;50.376;8.762;2022-09-03T07:06:01;1.73;;;0.93;;
23702;SDS011;12030;50.376;8.762;2022-09-03T07:08:29;4.35;;;0.98;;
23702;SDS011;12030;50.376;8.762;2022-09-03T07:10:56;1.20;;;0.82;;
23702;SDS011;12030;50.376;8.762;2022-09-03T07:13:24;2.22;;;0.82;;
23702;SDS011;12030;50.376;8.762;2022-09-03T07:16:00;0.93;;;0.70;;
23702;SDS011;12030;50.376;8.762;2022-09-03T07:18:30;0.95;;;0.70;;
23702;SDS011;12030;50.376;8.762;2022-09-03T07:21:00;2.22;;;0.90;;
23702;SDS011;12030;50.376;8.762;2022-09-03T07:23:28;2.30;;;0.80;;
23702;SDS011;12030;50.376;8.762;2022-09-03T07:25:58;2.58;;;0.88;;
23702;SDS011;12030;50.376;8.762;2022-09-03T07:28:25;2.80;;;1.00;;
23702;SDS011;12030;50.376;8.762;2022-09-03T07:30:52;2.10;;;0.90;;
23702;SDS011;12030;50.376;8.762;2022-09-03T07:33:19;4.13;;;0.90;;
23702;SDS011;12030;50.376;8.762;2022-09-03T07:35:45;1.15;;;0.80;;
23702;SDS011;12030;50.376;8.762;2022-09-03T07:38:15;2.78;;;0.80;;
23702;SDS011;12030;50.376;8.762;2022-09-03T07:40:42;2.42;;;0.90;;
23702;SDS011;12030;50.376;8.762;2022-09-03T07:43:08;2.80;;;0.90;;
23702;SDS011;12030;50.376;8.762;2022-09-03T07:45:34;5.00;;;0.90;;
23702;SDS011;12030;50.376;8.762;2022-09-03T07:48:00;1.85;;;0.82;;
23702;SDS011;12030;50.376;8.762;2022-09-03T07:50:26;2.60;;;1.07;;
23702;SDS011;12030;50.376;8.762;2022-09-03T07:52:55;2.67;;;1.35;;
23702;SDS011;12030;50.376;8.762;2022-09-03T07:55:22;2.40;;;0.90;;
23702;SDS011;12030;50.376;8.762;2022-09-03T07:57:47;2.10;;;0.90;;
23702;SDS011;12030;50.376;8.762;2022-09-03T08:00:13;2.30;;;1.10;;
23702;SDS011;12030;50.376;8.762;2022-09-03T08:02:39;2.10;;;0.80;;
23702;SDS011;12030;50.376;8.762;2022-09-03T08:05:05;2.13;;;1.00;;
23702;SDS011;12030;50.376;8.762;2022-09-03T08:07:31;2.70;;;0.82;;
23702;SDS011;12030;50.376;8.762;2022-09-03T08:09:56;4.85;;;1.23;;
23702;SDS011;12030;50.376;8.762;2022-09-03T08:12:23;3.85;;;1.15;;
23702;SDS011;12030;50.376;8.762;2022-09-03T08:14:48;9.38;;;1.70;;
23702;SDS011;12030;50.376;8.762;2022-09-03T08:17:14;7.43;;;1.80;;
23702;SDS011;12030;50.376;8.762;2022-09-03T08:19:39;5.33;;;1.73;;
23702;SDS011;12030;50.376;8.762;2022-09-03T08:22:06;8.18;;;1.80;;
23702;SDS011;12030;50.376;8.762;2022-09-03T08:24:32;4.00;;;1.37;;
23702;SDS011;12030;50.376;8.762;2022-09-03T08:26:59;1.90;;;0.80;;
23702;SDS011;12030;50.376;8.762;2022-09-03T08:29:25;4.95;;;1.10;;
23702;SDS011;12030;50.376;8.762;2022-09-03T08:31:51;5.83;;;0.90;;
23702;SDS011;12030;50.376;8.762;2022-09-03T08:34:17;2.08;;;0.90;;
23702;SDS011;12030;50.376;8.762;2022-09-03T08:36:44;3.08;;;0.93;;
23702;SDS011;12030;50.376;8.762;2022-09-03T08:39:11;2.40;;;0.80;;
23702;SDS011;12030;50.376;8.762;2022-09-03T08:49:26;2.10;;;0.85;;
23702;SDS011;12030;50.376;8.762;2022-09-03T08:52:36;2.20;;;0.88;;
23702;SDS011;12030;50.376;8.762;2022-09-03T08:57:49;4.40;;;0.90;;
23702;SDS011;12030;50.376;8.762;2022-09-03T09:00:48;3.03;;;0.83;;
23702;SDS011;12030;50.376;8.762;2022-09-03T09:03:29;3.65;;;1.20;;
23702;SDS011;12030;50.376;8.762;2022-09-03T09:19:36;1.67;;;0.80;;
23702;SDS011;12030;50.376;8.762;2022-09-03T09:22:15;1.90;;;0.90;;
23702;SDS011;12030;50.376;8.762;2022-09-03T09:25:16;2.30;;;0.95;;
23702;SDS011;12030;50.376;8.762;2022-09-03T09:27:56;1.23;;;0.80;;
23702;SDS011;12030;50.376;8.762;2022-09-03T09:30:23;3.90;;;1.00;;
23702;SDS011;12030;50.376;8.762;2022-09-03T09:32:49;2.43;;;0.90;;
23702;SDS011;12030;50.376;8.762;2022-09-03T09:35:14;1.10;;;0.90;;
23702;SDS011;12030;50.376;8.762;2022-09-03T09:37:48;1.57;;;0.90;;
23702;SDS011;12030;50.376;8.762;2022-09-03T09:40:25;1.23;;;0.77;;
23702;SDS011;12030;50.376;8.762;2022-09-03T09:43:31;0.98;;;0.88;;
23702;SDS011;12030;50.376;8.762;2022-09-03T09:45:51;1.95;;;0.77;;
23702;SDS011;12030;50.376;8.762;2022-09-03T09:53:44;2.00;;;0.97;;
23702;SDS011;12030;50.376;8.762;2022-09-03T09:56:20;2.45;;;0.90;;
23702;SDS011;12030;50.376;8.762;2022-09-03T09:58:47;1.40;;;1.10;;
23702;SDS011;12030;50.376;8.762;2022-09-03T10:01:22;4.30;;;1.10;;
23702;SDS011;12030;50.376;8.762;2022-09-03T10:03:54;3.80;;;1.75;;
23702;SDS011;12030;50.376;8.762;2022-09-03T10:06:24;2.50;;;1.20;;
23702;SDS011;12030;50.376;8.762;2022-09-03T10:09:11;1.88;;;1.20;;
23702;SDS011;12030;50.376;8.762;2022-09-03T10:11:40;2.23;;;0.87;;
23702;SDS011;12030;50.376;8.762;2022-09-03T10:14:16;1.40;;;0.90;;
23702;SDS011;12030;50.376;8.762;2022-09-03T10:16:56;1.30;;;1.00;;
23702;SDS011;12030;50.376;8.762;2022-09-03T10:19:40;2.80;;;0.90;;
23702;SDS011;12030;50.376;8.762;2022-09-03T10:22:36;2.00;;;1.10;;
23702;SDS011;12030;50.376;8.762;2022-09-03T10:25:08;1.20;;;0.90;;
23702;SDS011;12030;50.376;8.762;2022-09-03T10:27:34;3.10;;;1.10;;
23702;SDS011;12030;50.376;8.762;2022-09-03T10:30:01;2.35;;;1.15;;
23702;SDS011;12030;50.376;8.762;2022-09-03T10:32:44;3.42;;;0.90;;
23702;SDS011;12030;50.376;8.762;2022-09-03T10:35:51;1.70;;;0.77;;
23702;SDS011;12030;50.376;8.762;2022-09-03T10:38:28;2.80;;;1.20;;
23702;SDS011;12030;50.376;8.762;2022-09-03T10:41:02;3.00;;;1.10;;
23702;SDS011;12030;50.376;8.762;2022-09-03T10:47:11;2.00;;;0.93;;
23702;SDS011;12030;50.376;8.762;2022-09-03T10:49:51;3.67;;;1.08;;
23702;SDS011;12030;50.376;8.762;2022-09-03T10:55:19;1.90;;;1.20;;
23702;SDS011;12030;50.376;8.762;2022-09-03T10:58:02;2.00;;;1.00;;
23702;SDS011;12030;50.376;8.762;2022-09-03T11:00:56;2.22;;;1.08;;
23702;SDS011;12030;50.376;8.762;2022-09-03T11:08:36;2.30;;;1.20;;
23702;SDS011;12030;50.376;8.762;2022-09-03T11:13:45;1.48;;;1.10;;
23702;SDS011;12030;50.376;8.762;2022-09-03T11:16:16;3.03;;;1.40;;
23702;SDS011;12030;50.376;8.762;2022-09-03T11:18:49;3.03;;;1.20;;
23702;SDS011;12030;50.376;8.762;2022-09-03T11:21:19;2.55;;;1.20;;
23702;SDS011;12030;50.376;8.762;2022-09-03T11:24:00;1.80;;;1.10;;
23702;SDS011;12030;50.376;8.762;2022-09-03T11:27:29;2.63;;;1.10;;
23702;SDS011;12030;50.376;8.762;2022-09-03T11:29:45;3.60;;;1.20;;
23702;SDS011;12030;50.376;8.762;2022-09-03T11:32:29;3.90;;;2.10;;
23702;SDS011;12030;50.376;8.762;2022-09-03T11:35:11;2.65;;;1.45;;
23702;SDS011;12030;50.376;8.762;2022-09-03T11:37:52;2.42;;;1.27;;
23702;SDS011;12030;50.376;8.762;2022-09-03T11:40:27;4.03;;;1.30;;
23702;SDS011;12030;50.376;8.762;2022-09-03T11:43:05;2.53;;;1.10;;
23702;SDS011;12030;50.376;8.762;2022-09-03T11:45:34;3.25;;;1.20;;
23702;SDS011;12030;50.376;8.762;2022-09-03T11:48:01;1.93;;;1.20;;
23702;SDS011;12030;50.376;8.762;2022-09-03T11:50:49;3.40;;;1.20;;
23702;SDS011;12030;50.376;8.762;2022-09-03T11:55:53;3.20;;;1.50;;
23702;SDS011;12030;50.376;8.762;2022-09-03T11:58:29;2.67;;;1.17;;
23702;SDS011;12030;50.376;8.762;2022-09-03T12:00:56;1.98;;;1.33;;
23702;SDS011;12030;50.376;8.762;2022-09-03T12:09:22;3.15;;;1.75;;
23702;SDS011;12030;50.376;8.762;2022-09-03T12:12:17;3.30;;;1.35;;
23702;SDS011;12030;50.376;8.762;2022-09-03T12:15:16;2.27;;;1.20;;
23702;SDS011;12030;50.376;8.762;2022-09-03T12:17:49;4.65;;;1.40;;
23702;SDS011;12030;50.376;8.762;2022-09-03T12:20:43;3.60;;;1.65;;
23702;SDS011;12030;50.376;8.762;2022-09-03T12:23:10;3.97;;;2.78;;
23702;SDS011;12030;50.376;8.762;2022-09-03T12:25:50;3.13;;;1.30;;
23702;SDS011;12030;50.376;8.762;2022-09-03T12:28:18;2.80;;;1.75;;
23702;SDS011;12030;50.376;8.762;2022-09-03T12:30:47;3.72;;;1.73;;
23702;SDS011;12030;50.376;8.762;2022-09-03T12:33:16;2.90;;;1.55;;
23702;SDS011;12030;50.376;8.762;2022-09-03T12:35:42;2.63;;;1.50;;
23702;SDS011;12030;50.376;8.762;2022-09-03T12:38:07;3.73;;;1.40;;
23702;SDS011;12030;50.376;8.762;2022-09-03T12:40:40;2.83;;;1.50;;
23702;SDS011;12030;50.376;8.762;2022-09-03T12:43:14;2.63;;;1.50;;
23702;SDS011;12030;50.376;8.762;2022-09-03T12:45:48;2.87;;;1.67;;
23702;SDS011;12030;50.376;8.762;2022-09-03T12:48:16;3.20;;;1.77;;
23702;SDS011;12030;50.376;8.762;2022-09-03T12:50:43;3.15;;;1.63;;
23702;SDS011;12030;50.376;8.762;2022-09-03T12:53:11;5.10;;;1.63;;
23702;SDS011;12030;50.376;8.762;2022-09-03T12:55:52;2.15;;;1.58;;
23702;SDS011;12030;50.376;8.762;2022-09-03T13:01:19;2.30;;;1.55;;
23702;SDS011;12030;50.376;8.762;2022-09-03T13:03:49;2.28;;;1.60;;
23702;SDS011;12030;50.376;8.762;2022-09-03T13:06:32;3.22;;;1.55;;
23702;SDS011;12030;50.376;8.762;2022-09-03T13:09:10;2.00;;;1.60;;
23702;SDS011;12030;50.376;8.762;2022-09-03T13:11:39;2.70;;;1.40;;
23702;SDS011;12030;50.376;8.762;2022-09-03T13:14:08;3.90;;;1.60;;
23702;SDS011;12030;50.376;8.762;2022-09-03T13:19:33;1.67;;;1.50;;
23702;SDS011;12030;50.376;8.762;2022-09-03T13:27:25;5.60;;;1.83;;
23702;SDS011;12030;50.376;8.762;2022-09-03T13:32:40;2.00;;;1.40;;
23702;SDS011;12030;50.376;8.762;2022-09-03T13:38:19;3.25;;;1.80;;
23702;SDS011;12030;50.376;8.762;2022-09-03T13:43:35;3.03;;;1.50;;
23702;SDS011;12030;50.376;8.762;2022-09-03T13:46:11;4.07;;;1.33;;
23702;SDS011;12030;50.376;8.762;2022-09-03T13:48:44;4.00;;;1.50;;
23702;SDS011;12030;50.376;8.762;2022-09-03T13:54:28;1.97;;;1.30;;
23702;SDS011;12030;50.376;8.762;2022-09-03T13:57:16;3.58;;;1.30;;
23702;SDS011;12030;50.376;8.762;2022-09-03T14:00:05;1.95;;;1.25;;
23702;SDS011;12030;50.376;8.762;2022-09-03T14:08:21;1.75;;;1.30;;
23702;SDS011;12030;50.376;8.762;2022-09-03T14:13:59;1.80;;;1.13;;
23702;SDS011;12030;50.376;8.762;2022-09-03T14:22:23;1.95;;;1.35;;
23702;SDS011;12030;50.376;8.762;2022-09-03T14:27:41;2.85;;;1.27;;
23702;SDS011;12030;50.376;8.762;2022-09-03T14:41:26;3.20;;;1.17;;
23702;SDS011;12030;50.376;8.762;2022-09-03T14:44:30;2.00;;;1.27;;
23702;SDS011;12030;50.376;8.762;2022-09-03T14:49:48;3.08;;;1.17;;
23702;SDS011;12030;50.376;8.762;2022-09-03T15:01:12;1.63;;;1.20;;
23702;SDS011;12030;50.376;8.762;2022-09-03T15:12:09;2.23;;;1.10;;
23702;SDS011;12030;50.376;8.762;2022-09-03T15:15:04;2.00;;;1.13;;
23702;SDS011;12030;50.376;8.762;2022-09-03T15:17:46;3.28;;;1.02;;
23702;SDS011;12030;50.376;8.762;2022-09-03T15:23:08;2.50;;;1.40;;
23702;SDS011;12030;50.376;8.762;2022-09-03T15:34:32;2.17;;;1.25;;
23702;SDS011;12030;50.376;8.762;2022-09-03T15:37:18;1.45;;;1.30;;
23702;SDS011;12030;50.376;8.762;2022-09-03T15:39:57;3.30;;;1.13;;
23702;SDS011;12030;50.376;8.762;2022-09-03T15:42:35;3.10;;;1.33;;
23702;SDS011;12030;50.376;8.762;2022-09-03T15:45:02;3.47;;;1.20;;
23702;SDS011;12030;50.376;8.762;2022-09-03T15:47:52;1.88;;;1.17;;
23702;SDS011;12030;50.376;8.762;2022-09-03T15:55:49;1.40;;;1.10;;
23702;SDS011;12030;50.376;8.762;2022-09-03T15:58:35;1.30;;;1.10;;
23702;SDS011;12030;50.376;8.762;2022-09-03T16:01:18;2.22;;;1.30;;
23702;SDS011;12030;50.376;8.762;2022-09-03T16:04:11;2.30;;;1.15;;
23702;SDS011;12030;50.376;8.762;2022-09-03T16:07:06;2.55;;;1.17;;
23702;SDS011;12030;50.376;8.762;2022-09-03T16:14:40;1.80;;;1.00;;
23702;SDS011;12030;50.376;8.762;2022-09-03T16:20:13;1.73;;;1.15;;
23702;SDS011;12030;50.376;8.762;2022-09-03T16:22:57;1.40;;;1.20;;
23702;SDS011;12030;50.376;8.762;2022-09-03T16:25:54;1.40;;;1.20;;
23702;SDS011;12030;50.376;8.762;2022-09-03T16:28:52;1.63;;;1.15;;
23702;SDS011;12030;50.376;8.762;2022-09-03T16:42:51;1.05;;;0.95;;
23702;SDS011;12030;50.376;8.762;2022-09-03T16:45:29;1.27;;;1.10;;
23702;SDS011;12030;50.376;8.762;2022-09-03T16:51:06;1.60;;;1.17;;
23702;SDS011;12030;50.376;8.762;2022-09-03T17:04:12;2.20;;;1.10;;
23702;SDS011;12030;50.376;8.762;2022-09-03T17:09:31;1.48;;;1.15;;
23702;SDS011;12030;50.376;8.762;2022-09-03T17:15:20;2.83;;;1.38;;
23702;SDS011;12030;50.376;8.762;2022-09-03T17:25:39;1.50;;;1.10;;
23702;SDS011;12030;50.376;8.762;2022-09-03T17:33:49;1.38;;;1.25;;
23702;SDS011;12030;50.376;8.762;2022-09-03T17:42:28;2.17;;;1.30;;
23702;SDS011;12030;50.376;8.762;2022-09-03T17:50:21;3.73;;;1.50;;
23702;SDS011;12030;50.376;8.762;2022-09-03T17:52:51;3.83;;;1.40;;
23702;SDS011;12030;50.376;8.762;2022-09-03T17:55:35;1.73;;;1.60;;
23702;SDS011;12030;50.376;8.762;2022-09-03T17:58:25;2.67;;;1.20;;
23702;SDS011;12030;50.376;8.762;2022-09-03T18:01:12;3.85;;;1.23;;
23702;SDS011;12030;50.376;8.762;2022-09-03T18:03:55;1.90;;;1.17;;
23702;SDS011;12030;50.376;8.762;2022-09-03T18:11:40;2.10;;;1.30;;
23702;SDS011;12030;50.376;8.762;2022-09-03T18:14:21;2.72;;;1.40;;
23702;SDS011;12030;50.376;8.762;2022-09-03T18:17:03;4.47;;;1.50;;
23702;SDS011;12030;50.376;8.762;2022-09-03T18:19:36;2.55;;;1.20;;
23702;SDS011;12030;50.376;8.762;2022-09-03T18:22:35;4.68;;;1.60;;
23702;SDS011;12030;50.376;8.762;2022-09-03T18:25:23;4.82;;;1.50;;
23702;SDS011;12030;50.376;8.762;2022-09-03T18:28:09;2.53;;;1.50;;
23702;SDS011;12030;50.376;8.762;2022-09-03T18:30:58;3.45;;;1.60;;
23702;SDS011;12030;50.376;8.762;2022-09-03T18:33:42;3.03;;;1.60;;
23702;SDS011;12030;50.376;8.762;2022-09-03T18:36:26;3.80;;;1.63;;
23702;SDS011;12030;50.376;8.762;2022-09-03T18:39:25;3.50;;;1.58;;
23702;SDS011;12030;50.376;8.762;2022-09-03T18:48:22;4.60;;;1.70;;
23702;SDS011;12030;50.376;8.762;2022-09-03T18:51:12;2.72;;;1.55;;
23702;SDS011;12030;50.376;8.762;2022-09-03T18:57:19;3.67;;;1.73;;
23702;SDS011;12030;50.376;8.762;2022-09-03T19:00:10;2.47;;;1.55;;
23702;SDS011;12030;50.376;8.762;2022-09-03T19:03:03;2.40;;;1.70;;
23702;SDS011;12030;50.376;8.762;2022-09-03T19:06:04;4.90;;;1.52;;
23702;SDS011;12030;50.376;8.762;2022-09-03T19:09:04;3.75;;;1.77;;
23702;SDS011;12030;50.376;8.762;2022-09-03T19:17:42;2.57;;;1.63;;
23702;SDS011;12030;50.376;8.762;2022-09-03T19:20:32;3.33;;;1.57;;
23702;SDS011;12030;50.376;8.762;2022-09-03T19:23:19;3.05;;;1.60;;
23702;SDS011;12030;50.376;8.762;2022-09-03T19:26:49;2.53;;;1.80;;
23702;SDS011;12030;50.376;8.762;2022-09-03T19:36:23;3.17;;;1.73;;
23702;SDS011;12030;50.376;8.762;2022-09-03T19:39:45;6.03;;;2.13;;
23702;SDS011;12030;50.376;8.762;2022-09-03T19:46:25;4.00;;;2.03;;
23702;SDS011;12030;50.376;8.762;2022-09-03T19:49:29;3.97;;;2.33;;
23702;SDS011;12030;50.376;8.762;2022-09-03T19:52:39;4.20;;;1.95;;
23702;SDS011;12030;50.376;8.762;2022-09-03T19:55:33;2.53;;;1.90;;
23702;SDS011;12030;50.376;8.762;2022-09-03T19:58:21;3.33;;;2.00;;
23702;SDS011;12030;50.376;8.762;2022-09-03T20:01:07;2.97;;;1.63;;
23702;SDS011;12030;50.376;8.762;2022-09-03T20:03:52;6.40;;;1.80;;
23702;SDS011;12030;50.376;8.762;2022-09-03T20:06:39;1.98;;;1.52;;
23702;SDS011;12030;50.376;8.762;2022-09-03T20:09:25;2.53;;;1.40;;
23702;SDS011;12030;50.376;8.762;2022-09-03T20:12:13;2.17;;;1.40;;
23702;SDS011;12030;50.376;8.762;2022-09-03T20:14:41;3.67;;;1.40;;
23702;SDS011;12030;50.376;8.762;2022-09-03T20:17:09;2.10;;;1.40;;
23702;SDS011;12030;50.376;8.762;2022-09-03T20:25:44;2.70;;;1.40;;
23702;SDS011;12030;50.376;8.762;2022-09-03T20:28:36;3.00;;;1.73;;